Time;durP1;ratioP1;P1;durP2;ratioP2;P2;SDS_P1;SDS_P2;PMS_P1;PMS_P2;Temp;Humidity;BMP_temperature;BMP_pressure;BME280_temperature;BME280_humidity;BME280_pressure;Samples;Min_cycle;Max_cycle;Signal;HPM_P1;HPM_P2
2023/08/08 00:00:41;;;;;;;5.88;2.80;;;16.20;99.90;;;;;;2078392;28;20034;-71
2023/08/08 00:01:42;;;;;;;6.57;2.75;;;16.20;99.90;;;;;;2080749;28;20095;-71
2023/08/08 00:02:43;;;;;;;4.25;2.70;;;16.30;99.90;;;;;;2080352;28;20092;-71
2023/08/08 00:03:43;;;;;;;3.03;2.13;;;16.30;99.90;;;;;;2082129;28;20036;-71
2023/08/08 00:04:44;;;;;;;4.63;2.50;;;16.30;99.90;;;;;;2081895;28;20025;-71
2023/08/08 00:05:45;;;;;;;6.50;2.70;;;16.20;99.90;;;;;;2079769;28;20989;-71
2023/08/08 00:06:45;;;;;;;4.78;2.50;;;16.30;99.90;;;;;;2080029;28;20591;-71
2023/08/08 00:07:46;;;;;;;4.95;2.83;;;16.30;99.90;;;;;;2080860;28;20030;-71
2023/08/08 00:08:46;;;;;;;4.22;2.10;;;16.30;99.90;;;;;;2079263;28;20434;-71
2023/08/08 00:09:47;;;;;;;4.85;2.75;;;16.30;99.90;;;;;;2081477;28;20083;-72
2023/08/08 00:10:47;;;;;;;3.20;2.00;;;16.30;99.90;;;;;;2078323;28;20029;-71
2023/08/08 00:11:48;;;;;;;3.15;1.98;;;16.30;99.90;;;;;;2077932;28;20120;-71
2023/08/08 00:12:50;;;;;;;3.70;2.38;;;16.30;99.90;;;;;;2081883;28;20021;-71
2023/08/08 00:13:51;;;;;;;4.80;2.33;;;16.30;99.90;;;;;;2081001;28;20172;-71
2023/08/08 00:14:52;;;;;;;6.15;2.10;;;16.30;99.90;;;;;;2081011;28;20496;-71
2023/08/08 00:15:52;;;;;;;2.92;1.80;;;16.30;99.90;;;;;;2079357;28;20517;-71
2023/08/08 00:16:53;;;;;;;3.75;2.10;;;16.30;99.90;;;;;;2080125;28;20025;-71
2023/08/08 00:17:53;;;;;;;4.07;2.00;;;16.30;99.90;;;;;;2080294;28;20030;-71
2023/08/08 00:18:54;;;;;;;3.10;2.05;;;16.30;99.90;;;;;;2079846;28;20496;-71
2023/08/08 00:19:55;;;;;;;3.80;1.80;;;16.30;99.90;;;;;;2079525;28;20064;-71
2023/08/08 00:20:55;;;;;;;3.00;2.05;;;16.30;99.90;;;;;;2079843;28;20063;-71
2023/08/08 00:21:56;;;;;;;2.25;2.00;;;16.30;99.90;;;;;;2081680;28;20036;-71
2023/08/08 00:22:56;;;;;;;2.40;1.85;;;16.30;99.90;;;;;;2079085;28;20041;-71
2023/08/08 00:23:57;;;;;;;4.43;1.95;;;16.30;99.90;;;;;;2079605;28;20446;-71
2023/08/08 00:24:57;;;;;;;4.07;2.00;;;16.30;99.90;;;;;;2080591;28;20049;-71
2023/08/08 00:25:58;;;;;;;3.38;1.80;;;16.30;99.90;;;;;;2081424;28;20022;-71
2023/08/08 00:26:59;;;;;;;2.45;1.77;;;16.30;99.90;;;;;;2079801;28;20032;-71
2023/08/08 00:27:59;;;;;;;3.70;2.15;;;16.30;99.90;;;;;;2080344;28;20129;-71
2023/08/08 00:29:00;;;;;;;4.30;2.10;;;16.30;99.90;;;;;;2078846;28;20029;-71
2023/08/08 00:30:01;;;;;;;2.15;1.90;;;16.30;99.90;;;;;;2078052;28;20028;-71
2023/08/08 00:31:01;;;;;;;4.50;1.88;;;16.40;99.90;;;;;;2078999;28;20036;-71
2023/08/08 00:32:02;;;;;;;4.72;2.17;;;16.40;99.90;;;;;;2079007;28;20056;-71
2023/08/08 00:33:03;;;;;;;1.65;1.55;;;16.40;99.90;;;;;;2082098;28;20021;-71
2023/08/08 00:34:03;;;;;;;2.88;2.28;;;16.40;99.90;;;;;;2081757;28;20036;-71
2023/08/08 00:35:04;;;;;;;5.30;2.10;;;16.40;99.90;;;;;;2080564;28;20478;-71
2023/08/08 00:36:05;;;;;;;2.88;1.70;;;16.40;99.90;;;;;;2080378;28;20075;-71
2023/08/08 00:37:05;;;;;;;4.43;1.70;;;16.40;99.90;;;;;;2079377;28;20029;-71
2023/08/08 00:38:06;;;;;;;2.58;1.50;;;16.40;99.90;;;;;;2078862;28;20025;-71
2023/08/08 00:39:07;;;;;;;3.97;2.03;;;16.40;99.90;;;;;;2079870;28;20025;-71
2023/08/08 00:40:08;;;;;;;3.28;1.77;;;16.40;99.90;;;;;;2079097;28;20132;-71
2023/08/08 00:41:09;;;;;;;5.18;2.28;;;16.30;99.90;;;;;;2081579;28;20028;-71
2023/08/08 00:42:09;;;;;;;3.22;1.98;;;16.40;99.90;;;;;;2080055;28;20139;-71
2023/08/08 00:43:10;;;;;;;4.63;2.00;;;16.30;99.90;;;;;;2081112;28;20068;-71
2023/08/08 00:44:10;;;;;;;4.10;2.03;;;16.30;99.90;;;;;;2083998;28;20067;-71
2023/08/08 00:45:11;;;;;;;6.22;2.08;;;16.30;99.90;;;;;;2079618;28;20029;-71
2023/08/08 00:46:11;;;;;;;3.78;1.80;;;16.30;99.90;;;;;;2080178;28;20025;-71
2023/08/08 00:47:12;;;;;;;2.85;2.10;;;16.30;99.90;;;;;;2080145;28;20441;-71
2023/08/08 00:48:13;;;;;;;4.28;1.92;;;16.30;99.90;;;;;;2079143;28;20393;-71
2023/08/08 00:49:14;;;;;;;5.55;2.25;;;16.30;99.90;;;;;;2078636;28;20022;-71
2023/08/08 00:50:15;;;;;;;2.33;1.60;;;16.30;99.90;;;;;;2082033;28;20456;-71
2023/08/08 00:51:17;;;;;;;5.15;2.65;;;16.30;99.90;;;;;;2079832;28;20044;-71
2023/08/08 00:52:17;;;;;;;2.67;1.95;;;16.30;99.90;;;;;;2080157;28;20025;-71
2023/08/08 00:53:19;;;;;;;2.92;1.92;;;16.20;99.90;;;;;;2080584;28;20017;-71
2023/08/08 00:54:21;;;;;;;3.83;1.98;;;16.20;99.90;;;;;;2078535;28;20071;-71
2023/08/08 00:55:22;;;;;;;3.50;1.85;;;16.20;99.90;;;;;;2081063;28;20067;-71
2023/08/08 00:56:23;;;;;;;3.95;2.05;;;16.20;99.90;;;;;;2079719;28;20389;-71
2023/08/08 00:57:24;;;;;;;2.60;2.03;;;16.20;99.90;;;;;;2081342;28;20030;-71
2023/08/08 00:58:25;;;;;;;3.33;2.00;;;16.20;99.90;;;;;;2080740;28;20105;-71
2023/08/08 00:59:27;;;;;;;4.03;2.05;;;16.30;99.90;;;;;;2080260;28;20535;-71
2023/08/08 01:00:27;;;;;;;4.22;1.83;;;16.20;99.90;;;;;;2080564;28;20031;-71
2023/08/08 01:01:28;;;;;;;4.18;2.00;;;16.20;99.90;;;;;;2079667;28;20041;-71
2023/08/08 01:02:28;;;;;;;3.22;2.00;;;16.20;99.90;;;;;;2079007;28;20104;-71
2023/08/08 01:03:29;;;;;;;3.30;1.90;;;16.30;99.90;;;;;;2081976;28;20051;-71
2023/08/08 01:04:29;;;;;;;5.47;2.53;;;16.20;99.90;;;;;;2079375;28;20025;-71
2023/08/08 01:05:37;;;;;;;5.47;2.08;;;16.20;99.90;;;;;;2080435;28;20485;-71
2023/08/08 01:06:45;;;;;;;3.75;2.05;;;16.20;99.90;;;;;;2080268;28;20390;-71
2023/08/08 01:08:03;;;;;;;3.03;1.73;;;16.20;99.90;;;;;;2080046;28;20025;-71
2023/08/08 01:09:10;;;;;;;2.67;1.90;;;16.20;99.90;;;;;;2079003;28;20115;-71
2023/08/08 01:10:31;;;;;;;3.10;1.80;;;16.20;99.90;;;;;;2081190;28;20728;-71
2023/08/08 01:11:34;;;;;;;2.83;2.05;;;16.20;99.90;;;;;;2080864;28;20068;-71
2023/08/08 01:12:40;;;;;;;5.57;2.95;;;16.20;99.90;;;;;;2077948;28;20823;-71
2023/08/08 01:13:42;;;;;;;4.82;1.90;;;16.20;99.90;;;;;;2079355;28;20520;-71
2023/08/08 01:14:43;;;;;;;2.90;1.92;;;16.20;99.90;;;;;;2081071;28;20026;-71
2023/08/08 01:15:46;;;;;;;5.97;2.00;;;16.10;99.90;;;;;;2079843;28;20103;-71
2023/08/08 01:16:46;;;;;;;3.15;1.98;;;16.20;99.90;;;;;;2079347;28;20021;-71
2023/08/08 01:17:47;;;;;;;3.10;1.63;;;16.10;99.90;;;;;;2081681;28;20071;-71
2023/08/08 01:18:49;;;;;;;5.03;1.95;;;16.10;99.90;;;;;;2080765;28;20047;-71
2023/08/08 01:19:50;;;;;;;2.78;1.90;;;16.20;99.90;;;;;;2080757;28;20029;-71
2023/08/08 01:20:52;;;;;;;5.28;2.17;;;16.20;99.90;;;;;;2080958;28;20042;-71
2023/08/08 01:21:54;;;;;;;2.75;1.88;;;16.20;99.90;;;;;;2080410;28;20061;-71
2023/08/08 01:23:12;;;;;;;4.03;2.08;;;16.10;99.90;;;;;;2079043;28;20037;-71
2023/08/08 01:24:23;;;;;;;4.00;2.20;;;16.10;99.90;;;;;;2078842;28;20071;-71
2023/08/08 01:25:24;;;;;;;2.15;1.70;;;16.20;99.90;;;;;;2080934;28;20492;-71
2023/08/08 01:26:25;;;;;;;3.65;2.35;;;16.10;99.90;;;;;;2079352;28;20690;-71
2023/08/08 01:27:25;;;;;;;2.58;1.88;;;16.20;99.90;;;;;;2081859;28;20049;-71
2023/08/08 01:28:26;;;;;;;3.95;1.80;;;16.10;99.90;;;;;;2078263;28;20104;-71
2023/08/08 01:29:27;;;;;;;2.85;1.77;;;16.10;99.90;;;;;;2080656;28;20041;-71
2023/08/08 01:30:28;;;;;;;2.58;1.85;;;16.10;99.90;;;;;;2078378;28;20064;-71
2023/08/08 01:31:28;;;;;;;2.92;1.98;;;16.10;99.90;;;;;;2079496;28;20026;-71
2023/08/08 01:32:29;;;;;;;2.90;1.98;;;16.10;99.90;;;;;;2077791;28;20033;-71
2023/08/08 01:33:30;;;;;;;2.55;1.85;;;16.10;99.90;;;;;;2079786;28;20547;-71
2023/08/08 01:34:30;;;;;;;7.90;2.42;;;16.10;99.90;;;;;;2081178;28;20017;-71
2023/08/08 01:35:35;;;;;;;3.85;1.92;;;16.10;99.90;;;;;;2080471;28;20168;-71
2023/08/08 01:36:46;;;;;;;3.17;1.90;;;16.10;99.90;;;;;;2078584;28;20075;-71
2023/08/08 01:37:52;;;;;;;6.45;2.70;;;16.10;99.90;;;;;;2078437;28;20022;-71
2023/08/08 01:38:59;;;;;;;2.42;1.98;;;16.10;99.90;;;;;;2082458;28;20021;-71
2023/08/08 01:40:01;;;;;;;3.45;1.73;;;16.10;99.90;;;;;;2080898;28;20029;-71
2023/08/08 01:41:04;;;;;;;2.78;1.88;;;16.10;99.90;;;;;;2080342;28;20071;-71
2023/08/08 01:42:06;;;;;;;4.00;2.10;;;16.10;99.90;;;;;;2080488;28;20028;-71
2023/08/08 01:43:08;;;;;;;1.77;1.52;;;16.10;99.90;;;;;;2078869;28;20021;-71
2023/08/08 01:44:09;;;;;;;3.75;1.95;;;16.10;99.90;;;;;;2080485;28;20025;-71
2023/08/08 01:45:10;;;;;;;3.72;2.08;;;16.10;99.90;;;;;;2076231;28;20036;-71
2023/08/08 01:46:11;;;;;;;4.15;1.90;;;16.10;99.90;;;;;;2079168;28;20681;-71
2023/08/08 01:47:12;;;;;;;4.60;2.33;;;16.10;99.90;;;;;;2079590;28;20037;-71
2023/08/08 01:48:13;;;;;;;2.95;2.03;;;16.10;99.90;;;;;;2079930;28;20400;-71
2023/08/08 01:49:13;;;;;;;4.00;1.88;;;16.10;99.90;;;;;;2080704;28;20034;-71
2023/08/08 01:50:14;;;;;;;3.13;1.73;;;16.10;99.90;;;;;;2078295;28;20017;-71
2023/08/08 01:51:14;;;;;;;6.97;2.00;;;16.10;99.90;;;;;;2077659;28;20076;-71
2023/08/08 01:52:15;;;;;;;3.60;2.08;;;16.10;99.90;;;;;;2079571;28;20112;-71
2023/08/08 01:53:16;;;;;;;2.78;1.98;;;16.10;99.90;;;;;;2079017;28;20385;-71
2023/08/08 01:54:16;;;;;;;7.15;2.25;;;16.10;99.90;;;;;;2080625;28;20041;-71
2023/08/08 01:55:17;;;;;;;6.78;2.47;;;16.20;99.90;;;;;;2080834;28;20072;-71
2023/08/08 01:56:17;;;;;;;4.13;1.92;;;16.10;99.90;;;;;;2080859;28;20025;-71
2023/08/08 01:57:18;;;;;;;4.93;1.98;;;16.10;99.90;;;;;;2078932;28;20026;-71
2023/08/08 01:58:19;;;;;;;3.35;1.98;;;16.10;99.90;;;;;;2078971;28;20026;-71
2023/08/08 01:59:19;;;;;;;4.35;1.88;;;16.10;99.90;;;;;;2078366;28;20036;-71
2023/08/08 02:00:20;;;;;;;5.20;2.47;;;16.10;99.90;;;;;;2078406;28;20083;-71
2023/08/08 02:01:20;;;;;;;4.35;2.30;;;16.10;99.90;;;;;;2077409;28;20029;-71
2023/08/08 02:02:21;;;;;;;2.92;1.85;;;16.20;99.90;;;;;;2078894;28;20036;-71
2023/08/08 02:03:21;;;;;;;3.50;1.77;;;16.20;99.90;;;;;;2081257;28;20458;-71
2023/08/08 02:04:22;;;;;;;6.03;2.05;;;16.20;99.90;;;;;;2079642;28;20064;-71
2023/08/08 02:05:22;;;;;;;3.05;1.85;;;16.20;99.90;;;;;;2080307;28;20041;-71
2023/08/08 02:06:23;;;;;;;5.75;2.00;;;16.20;99.90;;;;;;2078968;28;20022;-71
2023/08/08 02:07:24;;;;;;;2.75;1.77;;;16.10;99.90;;;;;;2080547;28;20033;-71
2023/08/08 02:08:24;;;;;;;5.80;2.25;;;16.20;99.90;;;;;;2078633;28;20025;-71
2023/08/08 02:09:25;;;;;;;2.88;2.00;;;16.10;99.90;;;;;;2078041;28;20018;-71
2023/08/08 02:10:25;;;;;;;3.53;2.10;;;16.10;99.90;;;;;;2079205;28;20029;-71
2023/08/08 02:11:26;;;;;;;5.22;2.30;;;16.10;99.90;;;;;;2079094;28;20026;-71
2023/08/08 02:12:28;;;;;;;3.17;1.80;;;16.10;99.90;;;;;;2079933;28;20026;-71
2023/08/08 02:13:30;;;;;;;6.88;2.35;;;16.10;99.90;;;;;;2079765;28;20017;-71
2023/08/08 02:14:30;;;;;;;5.22;2.25;;;16.10;99.90;;;;;;2076563;28;20018;-71
2023/08/08 02:15:31;;;;;;;4.80;2.08;;;16.10;99.90;;;;;;2080032;28;20061;-71
2023/08/08 02:16:31;;;;;;;1.67;1.58;;;16.10;99.90;;;;;;2080503;28;20029;-71
2023/08/08 02:17:32;;;;;;;2.63;1.85;;;16.10;99.90;;;;;;2078312;28;20025;-71
2023/08/08 02:18:32;;;;;;;3.72;2.00;;;16.10;99.90;;;;;;2079542;28;20026;-71
2023/08/08 02:19:33;;;;;;;3.53;1.85;;;16.20;99.90;;;;;;2078179;28;20192;-71
2023/08/08 02:20:34;;;;;;;4.47;1.90;;;16.10;99.90;;;;;;2077607;28;20462;-71
2023/08/08 02:21:34;;;;;;;4.70;1.95;;;16.10;99.90;;;;;;2079843;28;20033;-71
2023/08/08 02:22:35;;;;;;;5.13;2.20;;;16.10;99.90;;;;;;2080685;28;20036;-71
2023/08/08 02:23:35;;;;;;;3.38;2.00;;;16.10;99.90;;;;;;2080495;28;20508;-71
2023/08/08 02:24:36;;;;;;;3.20;2.08;;;16.10;99.90;;;;;;2079393;28;20528;-71
2023/08/08 02:25:36;;;;;;;8.98;2.70;;;16.10;99.90;;;;;;2077979;28;20029;-71
2023/08/08 02:26:37;;;;;;;8.07;2.30;;;16.10;99.90;;;;;;2076787;28;20441;-71
2023/08/08 02:27:37;;;;;;;2.80;1.75;;;16.10;99.90;;;;;;2078402;28;20021;-71
2023/08/08 02:28:38;;;;;;;4.30;2.00;;;16.10;99.90;;;;;;2076793;28;20049;-71
2023/08/08 02:29:39;;;;;;;3.53;2.30;;;16.10;99.90;;;;;;2081127;28;20032;-71
2023/08/08 02:30:39;;;;;;;3.17;1.90;;;16.10;99.90;;;;;;2079213;28;20408;-71
2023/08/08 02:31:40;;;;;;;5.72;2.22;;;16.10;99.90;;;;;;2078885;28;20045;-71
2023/08/08 02:32:40;;;;;;;5.00;2.53;;;16.10;99.90;;;;;;2078754;28;20022;-71
2023/08/08 02:33:41;;;;;;;3.08;2.15;;;16.10;99.90;;;;;;2081229;28;20389;-71
2023/08/08 02:34:42;;;;;;;2.53;1.73;;;16.10;99.90;;;;;;2082520;28;20056;-71
2023/08/08 02:35:42;;;;;;;4.07;2.28;;;16.10;99.90;;;;;;2081365;28;20022;-71
2023/08/08 02:36:43;;;;;;;3.35;1.88;;;16.10;99.90;;;;;;2081687;28;20079;-71
2023/08/08 02:37:43;;;;;;;4.40;2.22;;;16.10;99.90;;;;;;2080222;28;20025;-71
2023/08/08 02:38:45;;;;;;;4.57;2.03;;;16.10;99.90;;;;;;2079644;28;20036;-71
2023/08/08 02:39:45;;;;;;;4.32;2.20;;;16.10;99.90;;;;;;2082166;28;20040;-71
2023/08/08 02:40:46;;;;;;;4.75;2.13;;;16.10;99.90;;;;;;2081526;28;20083;-71
2023/08/08 02:41:46;;;;;;;3.92;2.00;;;16.10;99.90;;;;;;2080518;28;20029;-71
2023/08/08 02:42:47;;;;;;;3.65;1.60;;;16.10;99.90;;;;;;2081222;28;20036;-71
2023/08/08 02:43:47;;;;;;;3.55;1.85;;;16.10;99.90;;;;;;2081667;28;20033;-71
2023/08/08 02:44:48;;;;;;;3.75;1.90;;;16.10;99.90;;;;;;2082018;28;20033;-71
2023/08/08 02:45:48;;;;;;;2.72;1.83;;;16.10;99.90;;;;;;2081348;28;20064;-71
2023/08/08 02:46:49;;;;;;;4.50;2.63;;;16.10;99.90;;;;;;2079953;28;20041;-71
2023/08/08 02:47:49;;;;;;;5.75;2.30;;;16.10;99.90;;;;;;2079568;28;20041;-71
2023/08/08 02:48:50;;;;;;;4.57;2.00;;;16.10;99.90;;;;;;2081739;28;20091;-71
2023/08/08 02:49:51;;;;;;;3.20;1.90;;;16.10;99.90;;;;;;2079750;28;20029;-71
2023/08/08 02:50:51;;;;;;;3.85;2.30;;;16.10;99.90;;;;;;2082538;28;20067;-71
2023/08/08 02:51:52;;;;;;;4.18;2.22;;;16.10;99.90;;;;;;2080778;28;20147;-71
2023/08/08 02:52:52;;;;;;;5.43;2.20;;;16.10;99.90;;;;;;2080565;28;20037;-71
2023/08/08 02:53:53;;;;;;;3.45;2.15;;;16.10;99.90;;;;;;2079765;28;20026;-71
2023/08/08 02:54:53;;;;;;;6.18;1.95;;;16.10;99.90;;;;;;2081380;28;20037;-71
2023/08/08 02:55:54;;;;;;;3.88;2.42;;;16.10;99.90;;;;;;2080687;28;20138;-71
2023/08/08 02:56:54;;;;;;;2.88;2.28;;;16.10;99.90;;;;;;2081167;28;20101;-71
2023/08/08 02:57:55;;;;;;;5.35;2.40;;;16.10;99.90;;;;;;2080241;28;20526;-71
2023/08/08 02:58:55;;;;;;;6.90;2.28;;;16.10;99.90;;;;;;2083088;28;20071;-71
2023/08/08 02:59:56;;;;;;;6.43;2.42;;;16.10;99.90;;;;;;2078823;28;20060;-71
2023/08/08 03:00:56;;;;;;;4.35;2.22;;;16.10;99.90;;;;;;2082551;28;20029;-71
2023/08/08 03:01:57;;;;;;;4.60;2.35;;;16.10;99.90;;;;;;2080992;28;20507;-71
2023/08/08 03:02:59;;;;;;;4.03;2.45;;;16.10;99.90;;;;;;2081036;28;20029;-71
2023/08/08 03:03:59;;;;;;;9.80;2.60;;;16.10;99.90;;;;;;2081289;28;20032;-71
2023/08/08 03:05:00;;;;;;;2.97;2.03;;;16.10;99.90;;;;;;2082357;28;20064;-71
2023/08/08 03:06:01;;;;;;;5.53;2.33;;;16.10;99.90;;;;;;2079976;28;20038;-71
2023/08/08 03:07:03;;;;;;;3.88;2.53;;;16.10;99.90;;;;;;2079730;28;20087;-71
2023/08/08 03:08:04;;;;;;;6.22;2.28;;;16.10;99.90;;;;;;2079994;28;20025;-71
2023/08/08 03:09:05;;;;;;;3.83;2.42;;;16.10;99.90;;;;;;2079973;28;20033;-71
2023/08/08 03:10:06;;;;;;;3.97;2.28;;;16.10;99.90;;;;;;2079933;28;20033;-71
2023/08/08 03:11:07;;;;;;;4.60;2.35;;;16.10;99.90;;;;;;2081491;28;20059;-71
2023/08/08 03:12:08;;;;;;;6.10;2.70;;;16.10;99.90;;;;;;2079585;28;20057;-71
2023/08/08 03:13:08;;;;;;;6.00;2.90;;;16.00;99.90;;;;;;2082174;28;20030;-71
2023/08/08 03:14:09;;;;;;;4.25;2.40;;;16.10;99.90;;;;;;2080642;28;20025;-71
2023/08/08 03:15:10;;;;;;;4.10;2.40;;;16.10;99.90;;;;;;2083237;28;20030;-71
2023/08/08 03:16:11;;;;;;;4.60;2.13;;;16.10;99.90;;;;;;2082226;28;20021;-71
2023/08/08 03:17:11;;;;;;;6.35;2.40;;;16.10;99.90;;;;;;2079565;28;20417;-71
2023/08/08 03:18:12;;;;;;;3.83;2.20;;;16.10;99.90;;;;;;2079428;28;20036;-71
2023/08/08 03:19:12;;;;;;;3.05;2.30;;;16.10;99.90;;;;;;2081386;28;20030;-71
2023/08/08 03:20:13;;;;;;;6.88;3.03;;;16.10;99.90;;;;;;2082150;28;20027;-71
2023/08/08 03:21:14;;;;;;;3.30;2.17;;;16.10;99.90;;;;;;2080910;28;20021;-71
2023/08/08 03:22:14;;;;;;;6.32;2.92;;;16.10;99.90;;;;;;2078017;28;20100;-71
2023/08/08 03:23:15;;;;;;;4.07;2.60;;;16.10;99.90;;;;;;2079803;28;20147;-71
2023/08/08 03:24:15;;;;;;;3.90;2.53;;;16.10;99.90;;;;;;2079709;28;20043;-71
2023/08/08 03:25:16;;;;;;;6.28;3.10;;;16.10;99.90;;;;;;2080549;28;20140;-71
2023/08/08 03:26:16;;;;;;;9.15;3.35;;;16.10;99.90;;;;;;2080052;28;20431;-71
2023/08/08 03:27:17;;;;;;;6.95;3.47;;;16.10;99.90;;;;;;2080333;28;20512;-71
2023/08/08 03:28:17;;;;;;;5.03;3.00;;;16.10;99.90;;;;;;2081166;28;20048;-71
2023/08/08 03:29:18;;;;;;;10.10;3.65;;;16.10;99.90;;;;;;2081856;28;20083;-71
2023/08/08 03:30:19;;;;;;;6.63;2.83;;;16.10;99.90;;;;;;2077971;28;20030;-71
2023/08/08 03:31:20;;;;;;;5.13;3.00;;;16.10;99.90;;;;;;2079784;28;20440;-72
2023/08/08 03:32:22;;;;;;;5.25;2.88;;;16.10;99.90;;;;;;2079078;28;20021;-71
2023/08/08 03:33:22;;;;;;;8.07;2.88;;;16.10;99.90;;;;;;2077862;28;20029;-72
2023/08/08 03:34:23;;;;;;;4.78;2.85;;;16.10;99.90;;;;;;2081022;28;20915;-72
2023/08/08 03:35:23;;;;;;;6.95;2.83;;;16.10;99.90;;;;;;2080299;28;20116;-72
2023/08/08 03:36:24;;;;;;;5.47;2.70;;;16.10;99.90;;;;;;2078754;28;20633;-72
2023/08/08 03:37:25;;;;;;;4.45;2.50;;;16.10;99.90;;;;;;2079886;28;20052;-71
2023/08/08 03:38:25;;;;;;;5.75;2.78;;;16.10;99.90;;;;;;2080412;28;20030;-71
2023/08/08 03:39:26;;;;;;;9.55;3.33;;;16.10;99.90;;;;;;2079655;28;20022;-71
2023/08/08 03:40:27;;;;;;;5.85;2.60;;;16.10;99.90;;;;;;2079914;28;20029;-71
2023/08/08 03:41:27;;;;;;;6.95;2.65;;;16.10;99.90;;;;;;2079912;28;20033;-72
2023/08/08 03:42:28;;;;;;;5.20;2.78;;;16.10;99.90;;;;;;2078859;28;20456;-72
2023/08/08 03:43:28;;;;;;;5.32;2.72;;;16.10;99.90;;;;;;2079728;28;20021;-71
2023/08/08 03:44:29;;;;;;;6.68;3.10;;;16.10;99.90;;;;;;2083746;28;20025;-72
2023/08/08 03:45:29;;;;;;;4.00;2.17;;;16.10;99.90;;;;;;2078989;28;20106;-71
2023/08/08 03:46:30;;;;;;;5.57;3.03;;;16.10;99.90;;;;;;2078689;28;20112;-71
2023/08/08 03:47:30;;;;;;;5.85;2.97;;;16.10;99.90;;;;;;2079227;28;20026;-72
2023/08/08 03:48:31;;;;;;;8.05;3.28;;;16.10;99.90;;;;;;2083263;28;20511;-72
2023/08/08 03:49:32;;;;;;;8.93;3.00;;;16.10;99.90;;;;;;2081363;28;20021;-72
2023/08/08 03:50:32;;;;;;;4.75;2.70;;;16.10;99.90;;;;;;2078889;28;20036;-72
2023/08/08 03:51:33;;;;;;;7.78;2.92;;;16.10;99.90;;;;;;2080350;28;20084;-72
2023/08/08 03:52:35;;;;;;;6.60;2.72;;;16.10;99.90;;;;;;2080974;28;20512;-72
2023/08/08 03:53:36;;;;;;;5.32;2.60;;;16.10;99.90;;;;;;2080221;28;20033;-72
2023/08/08 03:54:36;;;;;;;5.00;2.97;;;16.10;99.90;;;;;;2080258;28;20930;-72
2023/08/08 03:55:37;;;;;;;4.57;2.95;;;16.10;99.90;;;;;;2083135;28;20021;-72
2023/08/08 03:56:37;;;;;;;5.15;2.80;;;16.10;99.90;;;;;;2080694;28;20109;-72
2023/08/08 03:57:38;;;;;;;4.40;2.63;;;16.10;99.90;;;;;;2080497;28;20026;-72
2023/08/08 03:58:38;;;;;;;4.72;2.72;;;16.10;99.90;;;;;;2079638;28;20053;-72
2023/08/08 03:59:39;;;;;;;4.05;2.30;;;16.10;99.90;;;;;;2080240;28;20470;-72
2023/08/08 04:00:45;;;;;;;6.28;2.75;;;16.10;99.90;;;;;;2079517;28;20063;-72
2023/08/08 04:01:46;;;;;;;5.60;2.83;;;16.10;99.90;;;;;;2079871;28;20527;-72
2023/08/08 04:02:46;;;;;;;5.25;2.75;;;16.00;99.90;;;;;;2080261;28;20673;-72
2023/08/08 04:03:47;;;;;;;6.15;3.17;;;16.00;99.90;;;;;;2079153;28;20044;-72
2023/08/08 04:04:47;;;;;;;5.80;2.60;;;16.00;99.90;;;;;;2082124;28;20438;-72
2023/08/08 04:05:48;;;;;;;6.53;2.85;;;16.00;99.90;;;;;;2078691;28;20030;-72
2023/08/08 04:06:49;;;;;;;6.50;3.05;;;16.10;99.90;;;;;;2082227;28;20041;-72
2023/08/08 04:07:49;;;;;;;4.55;2.70;;;16.00;99.90;;;;;;2079275;28;20470;-72
2023/08/08 04:08:50;;;;;;;9.60;3.50;;;16.10;99.90;;;;;;2081172;28;20041;-72
2023/08/08 04:09:50;;;;;;;4.78;2.88;;;16.00;99.90;;;;;;2079137;28;20037;-72
2023/08/08 04:10:51;;;;;;;4.95;3.00;;;16.00;99.90;;;;;;2079060;28;20081;-72
2023/08/08 04:11:52;;;;;;;5.00;3.03;;;16.00;99.90;;;;;;2082691;28;20033;-72
2023/08/08 04:12:53;;;;;;;4.47;3.22;;;16.00;99.90;;;;;;2080760;28;20076;-72
2023/08/08 04:13:53;;;;;;;3.90;3.03;;;16.00;99.90;;;;;;2079218;28;20112;-72
2023/08/08 04:14:54;;;;;;;6.82;3.20;;;16.00;99.90;;;;;;2081200;28;20484;-72
2023/08/08 04:15:54;;;;;;;6.82;3.17;;;16.00;99.90;;;;;;2078145;28;20057;-72
2023/08/08 04:16:55;;;;;;;6.53;2.92;;;16.00;99.90;;;;;;2080181;28;20039;-72
2023/08/08 04:17:55;;;;;;;5.10;3.22;;;16.00;99.90;;;;;;2080010;28;20021;-72
2023/08/08 04:18:56;;;;;;;6.72;3.38;;;16.00;99.90;;;;;;2079742;28;20029;-72
2023/08/08 04:19:56;;;;;;;6.18;3.70;;;16.00;99.90;;;;;;2078970;28;20056;-72
2023/08/08 04:20:57;;;;;;;6.32;3.60;;;16.00;99.90;;;;;;2079864;28;20021;-72
2023/08/08 04:21:58;;;;;;;6.97;3.60;;;16.00;99.90;;;;;;2081189;28;20025;-72
2023/08/08 04:22:58;;;;;;;6.03;3.97;;;16.00;99.90;;;;;;2080680;28;20099;-72
2023/08/08 04:23:59;;;;;;;7.53;3.22;;;15.90;99.90;;;;;;2079508;28;20033;-72
2023/08/08 04:25:00;;;;;;;5.20;3.63;;;15.90;99.90;;;;;;2080047;28;20026;-72
2023/08/08 04:26:00;;;;;;;6.00;3.35;;;15.90;99.90;;;;;;2076154;28;20104;-72
2023/08/08 04:27:01;;;;;;;7.85;3.30;;;15.90;99.90;;;;;;2078225;28;20034;-71
2023/08/08 04:28:02;;;;;;;5.57;3.33;;;15.90;99.90;;;;;;2080728;28;20029;-72
2023/08/08 04:29:03;;;;;;;8.07;3.70;;;15.90;99.90;;;;;;2079647;28;20045;-72
2023/08/08 04:30:04;;;;;;;5.65;3.33;;;15.90;99.90;;;;;;2078150;28;20107;-72
2023/08/08 04:31:04;;;;;;;5.95;3.80;;;15.90;99.90;;;;;;2081710;28;20034;-72
2023/08/08 04:32:05;;;;;;;7.10;3.50;;;15.90;99.90;;;;;;2078136;28;20025;-72
2023/08/08 04:33:06;;;;;;;8.73;3.58;;;16.00;99.90;;;;;;2080176;28;20409;-72
2023/08/08 04:34:06;;;;;;;6.80;3.72;;;16.00;99.90;;;;;;2078498;28;20016;-72
2023/08/08 04:35:07;;;;;;;6.40;4.18;;;15.90;99.90;;;;;;2078382;28;20568;-72
2023/08/08 04:36:07;;;;;;;6.68;3.72;;;16.00;99.90;;;;;;2080111;28;20110;-72
2023/08/08 04:37:08;;;;;;;7.75;3.55;;;16.00;99.90;;;;;;2077910;28;20022;-72
2023/08/08 04:38:08;;;;;;;8.70;3.78;;;16.00;99.90;;;;;;2081058;28;20087;-72
2023/08/08 04:39:09;;;;;;;7.53;4.05;;;16.00;99.90;;;;;;2079853;28;20605;-72
2023/08/08 04:40:10;;;;;;;5.22;3.53;;;16.00;99.90;;;;;;2077741;28;20072;-72
2023/08/08 04:41:10;;;;;;;7.75;4.00;;;16.00;99.90;;;;;;2080599;28;20167;-72
2023/08/08 04:42:11;;;;;;;5.82;3.45;;;16.00;99.90;;;;;;2080543;28;20021;-72
2023/08/08 04:43:11;;;;;;;8.70;4.20;;;16.00;99.90;;;;;;2081959;28;20127;-72
2023/08/08 04:44:12;;;;;;;8.77;3.80;;;16.00;99.90;;;;;;2078674;28;20025;-72
2023/08/08 04:45:12;;;;;;;7.10;3.33;;;16.00;99.90;;;;;;2077279;28;20079;-72
2023/08/08 04:46:13;;;;;;;8.43;3.88;;;16.00;99.90;;;;;;2080500;28;20159;-72
2023/08/08 04:47:14;;;;;;;7.35;3.50;;;16.00;99.90;;;;;;2079848;28;20087;-72
2023/08/08 04:48:14;;;;;;;10.75;4.50;;;16.00;99.90;;;;;;2077711;28;20025;-72
2023/08/08 04:49:15;;;;;;;5.57;3.78;;;15.90;99.90;;;;;;2082164;28;20033;-72
2023/08/08 04:50:15;;;;;;;6.45;3.88;;;16.00;99.90;;;;;;2081814;28;20029;-72
2023/08/08 04:51:16;;;;;;;5.97;4.03;;;16.00;99.90;;;;;;2081841;28;20401;-72
2023/08/08 04:52:17;;;;;;;8.52;3.75;;;16.00;99.90;;;;;;2081381;28;20032;-72
2023/08/08 04:53:17;;;;;;;9.45;3.70;;;16.00;99.90;;;;;;2079720;28;20067;-72
2023/08/08 04:54:18;;;;;;;8.68;3.97;;;16.00;99.90;;;;;;2080101;28;20026;-72
2023/08/08 04:55:19;;;;;;;6.30;3.83;;;16.00;99.90;;;;;;2080486;28;20044;-72
2023/08/08 04:56:19;;;;;;;9.18;3.65;;;16.00;99.90;;;;;;2080049;28;20022;-72
2023/08/08 04:57:20;;;;;;;6.22;3.58;;;16.00;99.90;;;;;;2078674;28;20029;-72
2023/08/08 04:58:20;;;;;;;7.65;4.00;;;16.00;99.90;;;;;;2078939;28;20377;-72
2023/08/08 04:59:21;;;;;;;10.80;4.40;;;16.00;99.90;;;;;;2082577;28;20021;-72
2023/08/08 05:00:21;;;;;;;7.57;4.20;;;16.00;99.90;;;;;;2079561;28;20017;-72
2023/08/08 05:01:22;;;;;;;6.72;4.05;;;16.00;99.90;;;;;;2080037;28;20148;-71
2023/08/08 05:02:23;;;;;;;5.20;4.00;;;16.00;99.90;;;;;;2082743;28;20056;-71
2023/08/08 05:03:23;;;;;;;6.57;4.20;;;16.00;99.90;;;;;;2079372;28;20026;-72
2023/08/08 05:04:24;;;;;;;9.93;4.45;;;16.00;99.90;;;;;;2081098;28;20045;-72
2023/08/08 05:05:24;;;;;;;8.48;4.25;;;16.00;99.90;;;;;;2080249;28;20033;-72
2023/08/08 05:06:25;;;;;;;8.15;4.35;;;16.00;99.90;;;;;;2080301;28;20056;-72
2023/08/08 05:07:26;;;;;;;6.28;4.22;;;16.00;99.90;;;;;;2079500;28;20026;-71
2023/08/08 05:08:26;;;;;;;11.98;4.43;;;16.00;99.90;;;;;;2078370;28;20018;-72
2023/08/08 05:09:27;;;;;;;7.20;4.35;;;16.10;99.90;;;;;;2078527;28;20033;-71
2023/08/08 05:10:28;;;;;;;9.38;4.63;;;16.10;99.90;;;;;;2081144;28;20025;-72
2023/08/08 05:11:28;;;;;;;12.73;5.88;;;16.10;99.90;;;;;;2079949;28;20533;-71
2023/08/08 05:12:29;;;;;;;7.88;4.78;;;16.10;99.90;;;;;;2078682;28;20018;-72
2023/08/08 05:13:29;;;;;;;11.32;5.35;;;16.10;99.90;;;;;;2081593;28;20091;-71
2023/08/08 05:14:30;;;;;;;9.13;5.65;;;16.10;99.90;;;;;;2080412;28;20056;-71
2023/08/08 05:15:30;;;;;;;10.18;5.88;;;16.10;99.90;;;;;;2078488;28;20089;-71
2023/08/08 05:16:31;;;;;;;9.95;6.00;;;16.10;99.90;;;;;;2078161;28;20021;-72
2023/08/08 05:17:32;;;;;;;13.52;5.72;;;16.10;99.90;;;;;;2078675;28;20037;-71